sensor_id;sensor_type;location;lat;lon;timestamp;temperature;humidity
38784;DHT22;24531;45.502;12.238;2023-04-03T00:01:31;15.90;84.50
38784;DHT22;24531;45.502;12.238;2023-04-03T00:03:57;15.90;84.40
38784;DHT22;24531;45.502;12.238;2023-04-03T00:06:24;15.90;84.30
38784;DHT22;24531;45.502;12.238;2023-04-03T00:08:50;15.80;84.20
38784;DHT22;24531;45.502;12.238;2023-04-03T00:11:17;15.80;84.30
38784;DHT22;24531;45.502;12.238;2023-04-03T00:13:43;15.80;84.30
38784;DHT22;24531;45.502;12.238;2023-04-03T00:16:10;15.70;84.30
38784;DHT22;24531;45.502;12.238;2023-04-03T00:18:37;15.80;85.10
38784;DHT22;24531;45.502;12.238;2023-04-03T00:21:04;15.70;84.30
38784;DHT22;24531;45.502;12.238;2023-04-03T00:23:30;15.70;84.30
38784;DHT22;24531;45.502;12.238;2023-04-03T00:25:56;15.60;84.40
38784;DHT22;24531;45.502;12.238;2023-04-03T00:28:21;15.60;84.50
38784;DHT22;24531;45.502;12.238;2023-04-03T00:30:51;15.50;84.50
38784;DHT22;24531;45.502;12.238;2023-04-03T00:33:16;15.50;84.70
38784;DHT22;24531;45.502;12.238;2023-04-03T00:35:42;15.40;84.90
38784;DHT22;24531;45.502;12.238;2023-04-03T00:38:08;15.40;85.00
38784;DHT22;24531;45.502;12.238;2023-04-03T00:40:36;15.30;85.00
38784;DHT22;24531;45.502;12.238;2023-04-03T00:43:05;15.30;85.20
38784;DHT22;24531;45.502;12.238;2023-04-03T00:45:40;15.30;85.20
38784;DHT22;24531;45.502;12.238;2023-04-03T00:48:10;15.20;85.30
38784;DHT22;24531;45.502;12.238;2023-04-03T00:50:40;15.20;85.20
38784;DHT22;24531;45.502;12.238;2023-04-03T00:53:08;15.20;85.20
38784;DHT22;24531;45.502;12.238;2023-04-03T00:55:35;15.20;85.30
38784;DHT22;24531;45.502;12.238;2023-04-03T00:58:03;15.10;85.30
38784;DHT22;24531;45.502;12.238;2023-04-03T01:00:28;15.10;85.30
38784;DHT22;24531;45.502;12.238;2023-04-03T01:02:54;15.10;85.40
38784;DHT22;24531;45.502;12.238;2023-04-03T01:05:21;15.10;85.40
38784;DHT22;24531;45.502;12.238;2023-04-03T01:07:48;15.00;85.30
38784;DHT22;24531;45.502;12.238;2023-04-03T01:10:15;15.00;85.30
38784;DHT22;24531;45.502;12.238;2023-04-03T01:12:44;15.00;85.30
38784;DHT22;24531;45.502;12.238;2023-04-03T01:15:14;15.00;85.30
38784;DHT22;24531;45.502;12.238;2023-04-03T01:20:31;15.00;85.40
38784;DHT22;24531;45.502;12.238;2023-04-03T01:23:14;14.90;85.40
38784;DHT22;24531;45.502;12.238;2023-04-03T01:25:46;14.90;85.30
38784;DHT22;24531;45.502;12.238;2023-04-03T01:28:17;14.90;85.30
38784;DHT22;24531;45.502;12.238;2023-04-03T01:30:53;14.90;85.30
38784;DHT22;24531;45.502;12.238;2023-04-03T01:33:21;14.80;85.40
38784;DHT22;24531;45.502;12.238;2023-04-03T01:35:47;14.80;85.30
38784;DHT22;24531;45.502;12.238;2023-04-03T01:38:12;14.80;85.40
38784;DHT22;24531;45.502;12.238;2023-04-03T01:40:38;14.90;85.50
38784;DHT22;24531;45.502;12.238;2023-04-03T01:43:03;14.90;85.40
38784;DHT22;24531;45.502;12.238;2023-04-03T01:45:29;14.90;85.30
38784;DHT22;24531;45.502;12.238;2023-04-03T01:47:54;14.90;85.30
38784;DHT22;24531;45.502;12.238;2023-04-03T01:50:20;14.90;85.30
38784;DHT22;24531;45.502;12.238;2023-04-03T01:52:46;14.90;85.30
38784;DHT22;24531;45.502;12.238;2023-04-03T01:55:11;14.90;85.20
38784;DHT22;24531;45.502;12.238;2023-04-03T01:57:37;14.90;85.20
38784;DHT22;24531;45.502;12.238;2023-04-03T02:00:03;14.90;85.10
38784;DHT22;24531;45.502;12.238;2023-04-03T02:02:29;14.90;85.00
38784;DHT22;24531;45.502;12.238;2023-04-03T02:04:55;14.90;85.10
38784;DHT22;24531;45.502;12.238;2023-04-03T02:07:21;15.00;85.00
38784;DHT22;24531;45.502;12.238;2023-04-03T02:09:47;15.00;85.20
38784;DHT22;24531;45.502;12.238;2023-04-03T02:12:12;15.00;85.20
38784;DHT22;24531;45.502;12.238;2023-04-03T02:14:38;15.00;85.20
38784;DHT22;24531;45.502;12.238;2023-04-03T02:17:04;15.00;85.10
38784;DHT22;24531;45.502;12.238;2023-04-03T02:19:34;15.10;85.40
38784;DHT22;24531;45.502;12.238;2023-04-03T02:22:01;15.00;85.20
38784;DHT22;24531;45.502;12.238;2023-04-03T02:24:26;15.00;85.20
38784;DHT22;24531;45.502;12.238;2023-04-03T02:26:52;15.10;85.40
38784;DHT22;24531;45.502;12.238;2023-04-03T02:29:18;15.10;85.40
38784;DHT22;24531;45.502;12.238;2023-04-03T02:31:44;15.10;85.30
38784;DHT22;24531;45.502;12.238;2023-04-03T02:34:10;15.10;85.30
38784;DHT22;24531;45.502;12.238;2023-04-03T02:36:36;15.10;85.30
38784;DHT22;24531;45.502;12.238;2023-04-03T02:39:01;15.20;85.20
38784;DHT22;24531;45.502;12.238;2023-04-03T02:41:30;15.10;85.10
38784;DHT22;24531;45.502;12.238;2023-04-03T02:44:01;15.10;85.20
38784;DHT22;24531;45.502;12.238;2023-04-03T02:46:27;15.00;86.00
38784;DHT22;24531;45.502;12.238;2023-04-03T02:48:53;15.00;85.30
38784;DHT22;24531;45.502;12.238;2023-04-03T02:51:19;14.90;85.30
38784;DHT22;24531;45.502;12.238;2023-04-03T02:53:44;14.90;85.40
38784;DHT22;24531;45.502;12.238;2023-04-03T02:56:10;14.90;85.40
38784;DHT22;24531;45.502;12.238;2023-04-03T02:58:36;14.80;85.40
38784;DHT22;24531;45.502;12.238;2023-04-03T03:01:02;14.70;85.40
38784;DHT22;24531;45.502;12.238;2023-04-03T03:03:30;14.70;85.60
38784;DHT22;24531;45.502;12.238;2023-04-03T03:06:06;14.60;85.60
38784;DHT22;24531;45.502;12.238;2023-04-03T03:08:32;14.60;85.70
38784;DHT22;24531;45.502;12.238;2023-04-03T03:10:58;14.60;85.70
38784;DHT22;24531;45.502;12.238;2023-04-03T03:13:24;14.50;85.80
38784;DHT22;24531;45.502;12.238;2023-04-03T03:15:50;14.60;86.00
38784;DHT22;24531;45.502;12.238;2023-04-03T03:18:15;14.60;86.00
38784;DHT22;24531;45.502;12.238;2023-04-03T03:20:41;14.60;86.10
38784;DHT22;24531;45.502;12.238;2023-04-03T03:23:07;14.50;86.20
38784;DHT22;24531;45.502;12.238;2023-04-03T03:25:32;14.50;86.20
38784;DHT22;24531;45.502;12.238;2023-04-03T03:27:58;14.50;86.30
38784;DHT22;24531;45.502;12.238;2023-04-03T03:30:23;14.50;86.40
38784;DHT22;24531;45.502;12.238;2023-04-03T03:32:49;14.50;86.40
38784;DHT22;24531;45.502;12.238;2023-04-03T03:35:15;14.50;86.40
38784;DHT22;24531;45.502;12.238;2023-04-03T03:37:41;14.40;86.30
38784;DHT22;24531;45.502;12.238;2023-04-03T03:40:07;14.40;86.50
38784;DHT22;24531;45.502;12.238;2023-04-03T03:42:32;14.40;86.70
38784;DHT22;24531;45.502;12.238;2023-04-03T03:44:58;14.30;86.50
38784;DHT22;24531;45.502;12.238;2023-04-03T03:47:24;14.30;86.60
38784;DHT22;24531;45.502;12.238;2023-04-03T03:49:49;14.30;86.70
38784;DHT22;24531;45.502;12.238;2023-04-03T03:52:15;14.40;86.70
38784;DHT22;24531;45.502;12.238;2023-04-03T03:54:40;14.30;86.70
38784;DHT22;24531;45.502;12.238;2023-04-03T03:57:06;14.40;86.70
38784;DHT22;24531;45.502;12.238;2023-04-03T03:59:32;14.40;86.80
38784;DHT22;24531;45.502;12.238;2023-04-03T04:01:57;14.40;86.70
38784;DHT22;24531;45.502;12.238;2023-04-03T04:04:23;14.40;86.70
38784;DHT22;24531;45.502;12.238;2023-04-03T04:06:48;14.30;86.70
38784;DHT22;24531;45.502;12.238;2023-04-03T04:09:14;14.30;86.80
38784;DHT22;24531;45.502;12.238;2023-04-03T04:11:40;14.30;86.90
38784;DHT22;24531;45.502;12.238;2023-04-03T04:14:06;14.30;86.90
38784;DHT22;24531;45.502;12.238;2023-04-03T04:16:32;14.30;86.80
38784;DHT22;24531;45.502;12.238;2023-04-03T04:18:58;14.20;86.80
38784;DHT22;24531;45.502;12.238;2023-04-03T04:21:24;14.20;87.10
38784;DHT22;24531;45.502;12.238;2023-04-03T04:23:49;14.20;87.00
38784;DHT22;24531;45.502;12.238;2023-04-03T04:26:15;14.20;87.00
38784;DHT22;24531;45.502;12.238;2023-04-03T04:28:40;14.20;87.00
38784;DHT22;24531;45.502;12.238;2023-04-03T04:31:06;14.20;87.00
38784;DHT22;24531;45.502;12.238;2023-04-03T04:33:32;14.20;86.90
38784;DHT22;24531;45.502;12.238;2023-04-03T04:35:57;14.00;86.80
38784;DHT22;24531;45.502;12.238;2023-04-03T04:38:23;13.90;87.00
38784;DHT22;24531;45.502;12.238;2023-04-03T04:40:48;13.80;87.10
38784;DHT22;24531;45.502;12.238;2023-04-03T04:43:14;13.70;87.60
38784;DHT22;24531;45.502;12.238;2023-04-03T04:45:41;13.70;87.80
38784;DHT22;24531;45.502;12.238;2023-04-03T04:48:06;13.80;87.80
38784;DHT22;24531;45.502;12.238;2023-04-03T04:50:32;13.80;87.70
38784;DHT22;24531;45.502;12.238;2023-04-03T04:52:58;13.80;87.60
38784;DHT22;24531;45.502;12.238;2023-04-03T04:55:23;13.80;87.60
38784;DHT22;24531;45.502;12.238;2023-04-03T04:57:49;13.80;87.60
38784;DHT22;24531;45.502;12.238;2023-04-03T05:00:15;13.80;87.60
38784;DHT22;24531;45.502;12.238;2023-04-03T05:02:41;13.80;87.70
38784;DHT22;24531;45.502;12.238;2023-04-03T05:05:07;13.80;87.80
38784;DHT22;24531;45.502;12.238;2023-04-03T05:07:32;13.80;88.00
38784;DHT22;24531;45.502;12.238;2023-04-03T05:09:58;13.90;88.10
38784;DHT22;24531;45.502;12.238;2023-04-03T05:12:24;13.90;88.10
38784;DHT22;24531;45.502;12.238;2023-04-03T05:14:50;13.90;88.10
38784;DHT22;24531;45.502;12.238;2023-04-03T05:17:15;13.90;88.80
38784;DHT22;24531;45.502;12.238;2023-04-03T05:19:41;13.90;88.20
38784;DHT22;24531;45.502;12.238;2023-04-03T05:22:06;13.90;88.10
38784;DHT22;24531;45.502;12.238;2023-04-03T05:24:32;14.00;88.10
38784;DHT22;24531;45.502;12.238;2023-04-03T05:26:58;14.00;88.10
38784;DHT22;24531;45.502;12.238;2023-04-03T05:29:24;14.00;88.10
38784;DHT22;24531;45.502;12.238;2023-04-03T05:31:50;14.00;88.10
38784;DHT22;24531;45.502;12.238;2023-04-03T05:34:16;14.00;88.20
38784;DHT22;24531;45.502;12.238;2023-04-03T05:36:42;14.10;88.20
38784;DHT22;24531;45.502;12.238;2023-04-03T05:39:07;14.10;88.20
38784;DHT22;24531;45.502;12.238;2023-04-03T05:41:33;14.10;88.30
38784;DHT22;24531;45.502;12.238;2023-04-03T05:43:59;14.20;88.30
38784;DHT22;24531;45.502;12.238;2023-04-03T05:46:25;14.30;88.20
38784;DHT22;24531;45.502;12.238;2023-04-03T05:48:50;14.30;88.00
38784;DHT22;24531;45.502;12.238;2023-04-03T05:51:29;14.40;88.00
38784;DHT22;24531;45.502;12.238;2023-04-03T05:54:02;14.40;87.90
38784;DHT22;24531;45.502;12.238;2023-04-03T05:56:30;14.40;87.60
38784;DHT22;24531;45.502;12.238;2023-04-03T05:58:55;14.50;87.70
38784;DHT22;24531;45.502;12.238;2023-04-03T06:01:21;14.70;87.70
38784;DHT22;24531;45.502;12.238;2023-04-03T06:03:47;14.80;87.30
38784;DHT22;24531;45.502;12.238;2023-04-03T06:06:13;14.90;86.50
38784;DHT22;24531;45.502;12.238;2023-04-03T06:08:39;14.90;85.70
38784;DHT22;24531;45.502;12.238;2023-04-03T06:11:05;14.90;84.90
38784;DHT22;24531;45.502;12.238;2023-04-03T06:13:31;14.80;84.30
38784;DHT22;24531;45.502;12.238;2023-04-03T06:15:57;15.00;84.10
38784;DHT22;24531;45.502;12.238;2023-04-03T06:18:22;15.20;84.10
38784;DHT22;24531;45.502;12.238;2023-04-03T06:20:48;15.50;83.40
38784;DHT22;24531;45.502;12.238;2023-04-03T06:23:14;15.70;83.60
38784;DHT22;24531;45.502;12.238;2023-04-03T06:25:39;15.80;82.30
38784;DHT22;24531;45.502;12.238;2023-04-03T06:28:05;15.90;82.00
38784;DHT22;24531;45.502;12.238;2023-04-03T06:30:34;16.00;82.70
38784;DHT22;24531;45.502;12.238;2023-04-03T06:33:00;16.00;80.90
38784;DHT22;24531;45.502;12.238;2023-04-03T06:35:26;15.90;80.80
38784;DHT22;24531;45.502;12.238;2023-04-03T06:37:53;15.90;80.50
38784;DHT22;24531;45.502;12.238;2023-04-03T06:40:22;15.90;79.70
38784;DHT22;24531;45.502;12.238;2023-04-03T06:42:47;15.80;79.90
38784;DHT22;24531;45.502;12.238;2023-04-03T06:45:13;15.80;79.70
38784;DHT22;24531;45.502;12.238;2023-04-03T06:47:39;15.90;79.40
38784;DHT22;24531;45.502;12.238;2023-04-03T06:50:05;15.90;79.30
38784;DHT22;24531;45.502;12.238;2023-04-03T06:52:32;15.80;78.60
38784;DHT22;24531;45.502;12.238;2023-04-03T06:54:57;16.00;78.30
38784;DHT22;24531;45.502;12.238;2023-04-03T06:57:25;16.00;77.60
38784;DHT22;24531;45.502;12.238;2023-04-03T06:59:50;16.10;77.40
38784;DHT22;24531;45.502;12.238;2023-04-03T07:02:17;16.10;76.10
38784;DHT22;24531;45.502;12.238;2023-04-03T07:04:42;16.10;76.40
38784;DHT22;24531;45.502;12.238;2023-04-03T07:07:08;16.30;76.40
38784;DHT22;24531;45.502;12.238;2023-04-03T07:09:55;16.40;75.70
38784;DHT22;24531;45.502;12.238;2023-04-03T07:12:21;16.40;75.50
38784;DHT22;24531;45.502;12.238;2023-04-03T07:14:47;16.50;75.30
38784;DHT22;24531;45.502;12.238;2023-04-03T07:17:12;16.60;75.10
38784;DHT22;24531;45.502;12.238;2023-04-03T07:19:38;16.70;74.40
38784;DHT22;24531;45.502;12.238;2023-04-03T07:22:04;16.80;74.30
38784;DHT22;24531;45.502;12.238;2023-04-03T07:24:29;16.80;74.00
38784;DHT22;24531;45.502;12.238;2023-04-03T07:26:55;17.00;73.70
38784;DHT22;24531;45.502;12.238;2023-04-03T07:29:20;17.10;73.70
38784;DHT22;24531;45.502;12.238;2023-04-03T07:31:47;17.30;73.00
38784;DHT22;24531;45.502;12.238;2023-04-03T07:34:13;17.30;71.90
38784;DHT22;24531;45.502;12.238;2023-04-03T07:36:38;17.40;71.90
38784;DHT22;24531;45.502;12.238;2023-04-03T07:39:04;17.50;72.00
38784;DHT22;24531;45.502;12.238;2023-04-03T07:41:29;17.70;71.80
38784;DHT22;24531;45.502;12.238;2023-04-03T07:43:55;17.90;70.40
38784;DHT22;24531;45.502;12.238;2023-04-03T07:46:22;18.00;69.60
38784;DHT22;24531;45.502;12.238;2023-04-03T07:48:48;18.10;69.30
38784;DHT22;24531;45.502;12.238;2023-04-03T07:51:13;18.40;69.20
38784;DHT22;24531;45.502;12.238;2023-04-03T07:53:40;18.80;69.20
38784;DHT22;24531;45.502;12.238;2023-04-03T07:56:06;19.30;68.50
38784;DHT22;24531;45.502;12.238;2023-04-03T07:58:32;19.90;68.30
38784;DHT22;24531;45.502;12.238;2023-04-03T08:00:59;20.40;66.20
38784;DHT22;24531;45.502;12.238;2023-04-03T08:03:25;20.70;65.40
38784;DHT22;24531;45.502;12.238;2023-04-03T08:05:50;21.10;64.90
38784;DHT22;24531;45.502;12.238;2023-04-03T08:08:19;21.60;64.40
38784;DHT22;24531;45.502;12.238;2023-04-03T08:10:49;22.20;64.00
38784;DHT22;24531;45.502;12.238;2023-04-03T08:13:15;22.80;62.60
38784;DHT22;24531;45.502;12.238;2023-04-03T08:15:41;22.70;61.60
38784;DHT22;24531;45.502;12.238;2023-04-03T08:18:06;22.80;60.60
38784;DHT22;24531;45.502;12.238;2023-04-03T08:20:32;23.00;60.80
38784;DHT22;24531;45.502;12.238;2023-04-03T08:22:57;23.30;60.00
38784;DHT22;24531;45.502;12.238;2023-04-03T08:25:23;23.60;58.90
38784;DHT22;24531;45.502;12.238;2023-04-03T08:27:49;23.80;58.30
38784;DHT22;24531;45.502;12.238;2023-04-03T08:30:14;24.10;58.20
38784;DHT22;24531;45.502;12.238;2023-04-03T08:32:40;24.40;57.80
38784;DHT22;24531;45.502;12.238;2023-04-03T08:35:10;24.80;57.50
38784;DHT22;24531;45.502;12.238;2023-04-03T08:37:36;25.00;56.30
38784;DHT22;24531;45.502;12.238;2023-04-03T08:40:03;25.20;55.80
38784;DHT22;24531;45.502;12.238;2023-04-03T08:50:29;25.80;53.60
38784;DHT22;24531;45.502;12.238;2023-04-03T08:52:59;26.00;53.60
38784;DHT22;24531;45.502;12.238;2023-04-03T08:55:31;26.30;53.40
38784;DHT22;24531;45.502;12.238;2023-04-03T08:58:07;26.50;52.80
38784;DHT22;24531;45.502;12.238;2023-04-03T09:00:45;26.80;51.80
38784;DHT22;24531;45.502;12.238;2023-04-03T09:03:13;26.80;51.20
38784;DHT22;24531;45.502;12.238;2023-04-03T09:05:43;26.80;51.00
38784;DHT22;24531;45.502;12.238;2023-04-03T09:08:30;26.80;50.30
38784;DHT22;24531;45.502;12.238;2023-04-03T09:13:56;27.60;50.40
38784;DHT22;24531;45.502;12.238;2023-04-03T09:16:56;28.20;49.70
38784;DHT22;24531;45.502;12.238;2023-04-03T09:19:17;28.30;49.00
38784;DHT22;24531;45.502;12.238;2023-04-03T09:21:46;28.70;49.30
38784;DHT22;24531;45.502;12.238;2023-04-03T09:24:14;28.90;48.90
38784;DHT22;24531;45.502;12.238;2023-04-03T09:27:01;29.10;48.20
38784;DHT22;24531;45.502;12.238;2023-04-03T09:29:29;29.20;47.50
38784;DHT22;24531;45.502;12.238;2023-04-03T09:32:02;29.20;47.50
38784;DHT22;24531;45.502;12.238;2023-04-03T09:34:38;29.30;46.30
38784;DHT22;24531;45.502;12.238;2023-04-03T09:37:07;29.10;46.10
38784;DHT22;24531;45.502;12.238;2023-04-03T09:39:52;29.10;46.40
38784;DHT22;24531;45.502;12.238;2023-04-03T09:42:23;29.20;46.00
38784;DHT22;24531;45.502;12.238;2023-04-03T09:45:01;29.20;45.90
38784;DHT22;24531;45.502;12.238;2023-04-03T09:47:32;29.30;45.30
38784;DHT22;24531;45.502;12.238;2023-04-03T09:52:48;29.70;44.90
38784;DHT22;24531;45.502;12.238;2023-04-03T09:55:23;30.40;45.70
38784;DHT22;24531;45.502;12.238;2023-04-03T09:58:02;30.90;44.80
38784;DHT22;24531;45.502;12.238;2023-04-03T10:00:35;31.20;43.60
38784;DHT22;24531;45.502;12.238;2023-04-03T10:03:01;31.10;43.40
38784;DHT22;24531;45.502;12.238;2023-04-03T10:05:37;31.00;43.40
38784;DHT22;24531;45.502;12.238;2023-04-03T10:08:33;30.90;43.00
38784;DHT22;24531;45.502;12.238;2023-04-03T10:11:28;30.80;42.50
38784;DHT22;24531;45.502;12.238;2023-04-03T10:13:58;30.80;43.10
38784;DHT22;24531;45.502;12.238;2023-04-03T10:16:48;31.10;42.80
38784;DHT22;24531;45.502;12.238;2023-04-03T10:19:38;30.70;42.30
38784;DHT22;24531;45.502;12.238;2023-04-03T10:22:15;30.10;42.50
38784;DHT22;24531;45.502;12.238;2023-04-03T10:27:32;28.20;43.00
38784;DHT22;24531;45.502;12.238;2023-04-03T10:30:29;26.70;43.30
38784;DHT22;24531;45.502;12.238;2023-04-03T10:33:36;25.60;44.50
38784;DHT22;24531;45.502;12.238;2023-04-03T10:36:31;24.50;45.50
38784;DHT22;24531;45.502;12.238;2023-04-03T10:39:17;23.90;46.40
38784;DHT22;24531;45.502;12.238;2023-04-03T10:42:13;23.50;47.00
38784;DHT22;24531;45.502;12.238;2023-04-03T10:50:48;22.70;48.60
38784;DHT22;24531;45.502;12.238;2023-04-03T10:53:36;22.50;48.10
38784;DHT22;24531;45.502;12.238;2023-04-03T11:01:31;22.00;48.60
38784;DHT22;24531;45.502;12.238;2023-04-03T11:04:00;21.80;49.00
38784;DHT22;24531;45.502;12.238;2023-04-03T11:06:53;21.60;49.00
38784;DHT22;24531;45.502;12.238;2023-04-03T11:09:30;21.30;49.10
38784;DHT22;24531;45.502;12.238;2023-04-03T11:12:10;21.20;49.20
38784;DHT22;24531;45.502;12.238;2023-04-03T11:14:38;21.00;49.40
38784;DHT22;24531;45.502;12.238;2023-04-03T11:17:15;21.00;49.60
38784;DHT22;24531;45.502;12.238;2023-04-03T11:22:41;20.80;49.80
38784;DHT22;24531;45.502;12.238;2023-04-03T11:27:55;20.90;50.00
38784;DHT22;24531;45.502;12.238;2023-04-03T11:30:23;20.80;49.70
38784;DHT22;24531;45.502;12.238;2023-04-03T11:33:15;20.70;49.90
38784;DHT22;24531;45.502;12.238;2023-04-03T11:35:51;20.60;49.80
38784;DHT22;24531;45.502;12.238;2023-04-03T11:38:21;20.60;50.10
38784;DHT22;24531;45.502;12.238;2023-04-03T11:40:49;20.60;50.30
38784;DHT22;24531;45.502;12.238;2023-04-03T11:46:00;20.50;50.10
38784;DHT22;24531;45.502;12.238;2023-04-03T11:53:39;20.30;49.80
38784;DHT22;24531;45.502;12.238;2023-04-03T12:01:56;20.20;49.90
38784;DHT22;24531;45.502;12.238;2023-04-03T12:04:25;20.20;49.80
38784;DHT22;24531;45.502;12.238;2023-04-03T12:06:58;20.30;49.90
38784;DHT22;24531;45.502;12.238;2023-04-03T12:10:00;20.20;49.90
38784;DHT22;24531;45.502;12.238;2023-04-03T12:14:54;20.30;50.00
38784;DHT22;24531;45.502;12.238;2023-04-03T12:17:25;20.40;50.00
38784;DHT22;24531;45.502;12.238;2023-04-03T12:19:52;20.30;49.80
38784;DHT22;24531;45.502;12.238;2023-04-03T12:22:19;20.40;49.50
38784;DHT22;24531;45.502;12.238;2023-04-03T12:24:48;20.30;49.50
38784;DHT22;24531;45.502;12.238;2023-04-03T12:35:18;20.20;49.90
38784;DHT22;24531;45.502;12.238;2023-04-03T12:37:52;20.20;49.80
38784;DHT22;24531;45.502;12.238;2023-04-03T12:48:16;20.20;49.50
38784;DHT22;24531;45.502;12.238;2023-04-03T12:50:45;20.20;49.70
38784;DHT22;24531;45.502;12.238;2023-04-03T12:53:21;20.20;50.10
38784;DHT22;24531;45.502;12.238;2023-04-03T12:55:53;20.20;49.90
38784;DHT22;24531;45.502;12.238;2023-04-03T12:58:24;20.20;49.80
38784;DHT22;24531;45.502;12.238;2023-04-03T13:03:37;20.30;49.90
38784;DHT22;24531;45.502;12.238;2023-04-03T13:06:05;20.20;49.90
38784;DHT22;24531;45.502;12.238;2023-04-03T13:08:31;20.10;49.80
38784;DHT22;24531;45.502;12.238;2023-04-03T13:11:10;20.00;49.70
38784;DHT22;24531;45.502;12.238;2023-04-03T13:13:37;20.00;50.00
38784;DHT22;24531;45.502;12.238;2023-04-03T13:16:11;20.00;50.20
38784;DHT22;24531;45.502;12.238;2023-04-03T13:18:39;20.00;50.30
38784;DHT22;24531;45.502;12.238;2023-04-03T13:21:14;20.00;50.10
38784;DHT22;24531;45.502;12.238;2023-04-03T13:23:44;20.00;50.20
38784;DHT22;24531;45.502;12.238;2023-04-03T13:26:10;19.90;50.30
38784;DHT22;24531;45.502;12.238;2023-04-03T13:28:38;19.90;50.20
38784;DHT22;24531;45.502;12.238;2023-04-03T13:33:51;19.80;49.70
38784;DHT22;24531;45.502;12.238;2023-04-03T13:36:21;19.70;49.70
38784;DHT22;24531;45.502;12.238;2023-04-03T13:39:03;19.70;50.20
38784;DHT22;24531;45.502;12.238;2023-04-03T13:46:41;19.90;50.30
38784;DHT22;24531;45.502;12.238;2023-04-03T13:51:44;19.80;50.00
38784;DHT22;24531;45.502;12.238;2023-04-03T13:54:29;19.70;50.00
38784;DHT22;24531;45.502;12.238;2023-04-03T13:56:57;19.60;50.00
38784;DHT22;24531;45.502;12.238;2023-04-03T13:59:34;19.60;49.90
38784;DHT22;24531;45.502;12.238;2023-04-03T14:04:47;19.50;50.00
38784;DHT22;24531;45.502;12.238;2023-04-03T14:07:15;19.50;49.80
38784;DHT22;24531;45.502;12.238;2023-04-03T14:09:42;19.40;49.60
38784;DHT22;24531;45.502;12.238;2023-04-03T14:12:31;19.40;49.80
38784;DHT22;24531;45.502;12.238;2023-04-03T14:15:00;19.40;49.70
38784;DHT22;24531;45.502;12.238;2023-04-03T14:17:27;19.40;49.80
38784;DHT22;24531;45.502;12.238;2023-04-03T14:19:55;19.40;50.20
38784;DHT22;24531;45.502;12.238;2023-04-03T14:22:26;19.50;50.00
38784;DHT22;24531;45.502;12.238;2023-04-03T14:24:52;19.50;49.90
38784;DHT22;24531;45.502;12.238;2023-04-03T14:27:27;19.60;49.90
38784;DHT22;24531;45.502;12.238;2023-04-03T14:29:55;19.70;50.00
38784;DHT22;24531;45.502;12.238;2023-04-03T14:32:22;19.80;50.10
38784;DHT22;24531;45.502;12.238;2023-04-03T14:34:49;19.90;50.20
38784;DHT22;24531;45.502;12.238;2023-04-03T14:37:21;20.00;50.30
38784;DHT22;24531;45.502;12.238;2023-04-03T14:39:48;20.00;49.70
38784;DHT22;24531;45.502;12.238;2023-04-03T14:42:17;19.90;49.60
38784;DHT22;24531;45.502;12.238;2023-04-03T14:44:43;19.80;49.20
38784;DHT22;24531;45.502;12.238;2023-04-03T14:47:11;19.80;49.00
38784;DHT22;24531;45.502;12.238;2023-04-03T14:49:37;19.70;49.30
38784;DHT22;24531;45.502;12.238;2023-04-03T14:52:03;19.70;49.70
38784;DHT22;24531;45.502;12.238;2023-04-03T14:54:28;19.80;49.10
38784;DHT22;24531;45.502;12.238;2023-04-03T14:56:55;19.60;49.00
38784;DHT22;24531;45.502;12.238;2023-04-03T14:59:22;19.70;49.40
38784;DHT22;24531;45.502;12.238;2023-04-03T15:01:48;19.70;49.40
38784;DHT22;24531;45.502;12.238;2023-04-03T15:04:16;19.70;49.30
38784;DHT22;24531;45.502;12.238;2023-04-03T15:06:43;19.60;50.10
38784;DHT22;24531;45.502;12.238;2023-04-03T15:09:20;19.70;49.80
38784;DHT22;24531;45.502;12.238;2023-04-03T15:11:47;19.80;50.00
38784;DHT22;24531;45.502;12.238;2023-04-03T15:14:13;19.90;49.60
38784;DHT22;24531;45.502;12.238;2023-04-03T15:16:39;19.70;49.00
38784;DHT22;24531;45.502;12.238;2023-04-03T15:19:05;19.50;48.90
38784;DHT22;24531;45.502;12.238;2023-04-03T15:21:30;19.50;49.10
38784;DHT22;24531;45.502;12.238;2023-04-03T15:23:56;19.50;49.60
38784;DHT22;24531;45.502;12.238;2023-04-03T15:26:22;19.60;49.30
38784;DHT22;24531;45.502;12.238;2023-04-03T15:28:47;19.50;48.70
38784;DHT22;24531;45.502;12.238;2023-04-03T15:31:13;19.40;48.70
38784;DHT22;24531;45.502;12.238;2023-04-03T15:33:39;19.40;48.80
38784;DHT22;24531;45.502;12.238;2023-04-03T15:36:05;19.40;49.30
38784;DHT22;24531;45.502;12.238;2023-04-03T15:38:30;19.40;49.60
38784;DHT22;24531;45.502;12.238;2023-04-03T15:40:56;19.40;49.40
38784;DHT22;24531;45.502;12.238;2023-04-03T15:43:22;19.30;49.40
38784;DHT22;24531;45.502;12.238;2023-04-03T15:45:49;19.30;49.60
38784;DHT22;24531;45.502;12.238;2023-04-03T15:48:15;19.30;49.60
38784;DHT22;24531;45.502;12.238;2023-04-03T15:50:41;19.20;49.50
38784;DHT22;24531;45.502;12.238;2023-04-03T15:53:07;19.20;49.90
38784;DHT22;24531;45.502;12.238;2023-04-03T15:55:34;19.40;49.60
38784;DHT22;24531;45.502;12.238;2023-04-03T15:58:00;19.30;49.60
38784;DHT22;24531;45.502;12.238;2023-04-03T16:00:27;20.00;50.40
38784;DHT22;24531;45.502;12.238;2023-04-03T16:02:59;22.20;48.10
38784;DHT22;24531;45.502;12.238;2023-04-03T16:05:25;23.50;44.80
38784;DHT22;24531;45.502;12.238;2023-04-03T16:07:51;22.80;44.00
38784;DHT22;24531;45.502;12.238;2023-04-03T16:10:18;21.70;45.10
38784;DHT22;24531;45.502;12.238;2023-04-03T16:12:44;20.70;46.90
38784;DHT22;24531;45.502;12.238;2023-04-03T16:15:10;20.00;47.50
38784;DHT22;24531;45.502;12.238;2023-04-03T16:17:37;19.50;48.50
38784;DHT22;24531;45.502;12.238;2023-04-03T16:20:04;19.20;49.00
38784;DHT22;24531;45.502;12.238;2023-04-03T16:22:31;18.90;49.50
38784;DHT22;24531;45.502;12.238;2023-04-03T16:24:56;18.70;50.00
38784;DHT22;24531;45.502;12.238;2023-04-03T16:27:22;18.40;50.30
38784;DHT22;24531;45.502;12.238;2023-04-03T16:29:55;18.30;50.60
38784;DHT22;24531;45.502;12.238;2023-04-03T16:32:22;18.10;50.80
38784;DHT22;24531;45.502;12.238;2023-04-03T16:34:48;18.00;50.90
38784;DHT22;24531;45.502;12.238;2023-04-03T16:37:14;17.90;50.90
38784;DHT22;24531;45.502;12.238;2023-04-03T16:39:40;17.80;51.00
38784;DHT22;24531;45.502;12.238;2023-04-03T16:42:06;17.70;51.10
38784;DHT22;24531;45.502;12.238;2023-04-03T16:44:31;17.70;51.30
38784;DHT22;24531;45.502;12.238;2023-04-03T16:46:57;17.70;51.50
38784;DHT22;24531;45.502;12.238;2023-04-03T16:49:24;17.60;51.60